sensor_id;sensor_type;location;lat;lon;timestamp;temperature;humidity
6627;DHT22;3349;49.830;8.748;2023-05-07T00:00:06;13.90;99.90
6627;DHT22;3349;49.830;8.748;2023-05-07T00:02:34;13.90;99.90
6627;DHT22;3349;49.830;8.748;2023-05-07T00:05:03;13.90;99.90
6627;DHT22;3349;49.830;8.748;2023-05-07T00:07:29;13.90;99.90
6627;DHT22;3349;49.830;8.748;2023-05-07T00:09:56;13.90;99.90
6627;DHT22;3349;49.830;8.748;2023-05-07T00:12:23;13.90;99.90
6627;DHT22;3349;49.830;8.748;2023-05-07T00:14:49;13.80;99.90
6627;DHT22;3349;49.830;8.748;2023-05-07T00:17:16;13.80;99.90
6627;DHT22;3349;49.830;8.748;2023-05-07T00:19:44;13.70;99.90
6627;DHT22;3349;49.830;8.748;2023-05-07T00:22:12;13.60;99.90
6627;DHT22;3349;49.830;8.748;2023-05-07T00:24:39;13.60;99.90
6627;DHT22;3349;49.830;8.748;2023-05-07T00:27:05;13.50;99.90
6627;DHT22;3349;49.830;8.748;2023-05-07T00:29:32;13.50;99.90
6627;DHT22;3349;49.830;8.748;2023-05-07T00:31:59;13.60;99.90
6627;DHT22;3349;49.830;8.748;2023-05-07T00:34:25;13.50;99.90
6627;DHT22;3349;49.830;8.748;2023-05-07T00:36:54;13.50;99.90
6627;DHT22;3349;49.830;8.748;2023-05-07T00:39:20;13.50;99.90
6627;DHT22;3349;49.830;8.748;2023-05-07T00:41:47;13.50;99.90
6627;DHT22;3349;49.830;8.748;2023-05-07T00:44:14;13.50;99.90
6627;DHT22;3349;49.830;8.748;2023-05-07T00:46:40;13.50;99.90
6627;DHT22;3349;49.830;8.748;2023-05-07T00:49:07;13.50;99.90
6627;DHT22;3349;49.830;8.748;2023-05-07T00:51:34;13.50;99.90
6627;DHT22;3349;49.830;8.748;2023-05-07T00:54:03;13.50;99.90
6627;DHT22;3349;49.830;8.748;2023-05-07T00:56:30;13.40;99.90
6627;DHT22;3349;49.830;8.748;2023-05-07T00:58:58;13.40;99.90
6627;DHT22;3349;49.830;8.748;2023-05-07T01:01:25;13.40;99.90
6627;DHT22;3349;49.830;8.748;2023-05-07T01:03:52;13.40;99.90
6627;DHT22;3349;49.830;8.748;2023-05-07T01:06:20;13.40;99.90
6627;DHT22;3349;49.830;8.748;2023-05-07T01:08:48;13.40;99.90
6627;DHT22;3349;49.830;8.748;2023-05-07T01:11:17;13.40;99.90
6627;DHT22;3349;49.830;8.748;2023-05-07T01:13:45;13.40;99.90
6627;DHT22;3349;49.830;8.748;2023-05-07T01:16:13;13.40;99.90
6627;DHT22;3349;49.830;8.748;2023-05-07T01:18:39;13.40;99.90
6627;DHT22;3349;49.830;8.748;2023-05-07T01:21:07;13.40;99.90
6627;DHT22;3349;49.830;8.748;2023-05-07T01:23:38;13.30;99.90
6627;DHT22;3349;49.830;8.748;2023-05-07T01:26:06;13.30;99.90
6627;DHT22;3349;49.830;8.748;2023-05-07T01:28:32;13.30;99.90
6627;DHT22;3349;49.830;8.748;2023-05-07T01:31:01;13.30;99.90
6627;DHT22;3349;49.830;8.748;2023-05-07T01:33:31;13.30;99.90
6627;DHT22;3349;49.830;8.748;2023-05-07T01:35:59;13.30;99.90
6627;DHT22;3349;49.830;8.748;2023-05-07T01:38:28;13.30;99.90
6627;DHT22;3349;49.830;8.748;2023-05-07T01:40:57;13.30;99.90
6627;DHT22;3349;49.830;8.748;2023-05-07T01:43:24;13.30;99.90
6627;DHT22;3349;49.830;8.748;2023-05-07T01:45:51;13.30;99.90
6627;DHT22;3349;49.830;8.748;2023-05-07T01:48:18;13.30;99.90
6627;DHT22;3349;49.830;8.748;2023-05-07T01:50:46;13.30;99.90
6627;DHT22;3349;49.830;8.748;2023-05-07T01:53:13;13.30;99.90
6627;DHT22;3349;49.830;8.748;2023-05-07T01:55:40;13.30;99.90
6627;DHT22;3349;49.830;8.748;2023-05-07T01:58:08;13.30;99.90
6627;DHT22;3349;49.830;8.748;2023-05-07T02:00:35;13.30;99.90
6627;DHT22;3349;49.830;8.748;2023-05-07T02:03:01;13.30;99.90
6627;DHT22;3349;49.830;8.748;2023-05-07T02:05:28;13.20;99.90
6627;DHT22;3349;49.830;8.748;2023-05-07T02:07:55;13.20;99.90
6627;DHT22;3349;49.830;8.748;2023-05-07T02:10:22;13.20;99.90
6627;DHT22;3349;49.830;8.748;2023-05-07T02:12:49;13.10;99.90
6627;DHT22;3349;49.830;8.748;2023-05-07T02:15:17;13.10;99.90
6627;DHT22;3349;49.830;8.748;2023-05-07T02:17:58;13.10;99.90
6627;DHT22;3349;49.830;8.748;2023-05-07T02:20:25;13.10;99.90
6627;DHT22;3349;49.830;8.748;2023-05-07T02:22:52;13.10;99.90
6627;DHT22;3349;49.830;8.748;2023-05-07T02:25:19;13.00;99.90
6627;DHT22;3349;49.830;8.748;2023-05-07T02:27:45;13.00;99.90
6627;DHT22;3349;49.830;8.748;2023-05-07T02:30:13;12.90;99.90
6627;DHT22;3349;49.830;8.748;2023-05-07T02:32:41;12.90;99.90
6627;DHT22;3349;49.830;8.748;2023-05-07T02:35:08;12.80;99.90
6627;DHT22;3349;49.830;8.748;2023-05-07T02:37:35;12.80;99.90
6627;DHT22;3349;49.830;8.748;2023-05-07T02:40:01;12.70;99.90
6627;DHT22;3349;49.830;8.748;2023-05-07T02:42:29;12.70;99.90
6627;DHT22;3349;49.830;8.748;2023-05-07T02:44:56;12.70;99.90
6627;DHT22;3349;49.830;8.748;2023-05-07T02:47:23;12.70;99.90
6627;DHT22;3349;49.830;8.748;2023-05-07T02:49:53;12.60;99.90
6627;DHT22;3349;49.830;8.748;2023-05-07T02:52:20;12.60;99.90
6627;DHT22;3349;49.830;8.748;2023-05-07T02:54:47;12.70;99.90
6627;DHT22;3349;49.830;8.748;2023-05-07T02:57:13;12.70;99.90
6627;DHT22;3349;49.830;8.748;2023-05-07T02:59:41;12.70;99.90
6627;DHT22;3349;49.830;8.748;2023-05-07T03:02:07;12.70;99.90
6627;DHT22;3349;49.830;8.748;2023-05-07T03:04:35;12.80;99.90
6627;DHT22;3349;49.830;8.748;2023-05-07T03:07:03;12.80;99.90
6627;DHT22;3349;49.830;8.748;2023-05-07T03:09:29;12.80;99.90
6627;DHT22;3349;49.830;8.748;2023-05-07T03:11:56;12.80;99.90
6627;DHT22;3349;49.830;8.748;2023-05-07T03:14:23;12.70;99.90
6627;DHT22;3349;49.830;8.748;2023-05-07T03:16:50;12.70;99.90
6627;DHT22;3349;49.830;8.748;2023-05-07T03:19:17;12.70;99.90
6627;DHT22;3349;49.830;8.748;2023-05-07T03:21:43;12.70;99.90
6627;DHT22;3349;49.830;8.748;2023-05-07T03:24:11;12.70;99.90
6627;DHT22;3349;49.830;8.748;2023-05-07T03:26:38;12.70;99.90
6627;DHT22;3349;49.830;8.748;2023-05-07T03:29:05;12.70;99.90
6627;DHT22;3349;49.830;8.748;2023-05-07T03:31:31;12.70;99.90
6627;DHT22;3349;49.830;8.748;2023-05-07T03:33:58;12.80;99.90
6627;DHT22;3349;49.830;8.748;2023-05-07T03:36:25;12.80;99.90
6627;DHT22;3349;49.830;8.748;2023-05-07T03:38:52;12.90;99.90
6627;DHT22;3349;49.830;8.748;2023-05-07T03:41:21;12.90;99.90
6627;DHT22;3349;49.830;8.748;2023-05-07T03:43:48;12.90;99.90
6627;DHT22;3349;49.830;8.748;2023-05-07T03:46:14;12.90;99.90
6627;DHT22;3349;49.830;8.748;2023-05-07T03:48:41;13.00;99.90
6627;DHT22;3349;49.830;8.748;2023-05-07T03:51:08;13.00;99.90
6627;DHT22;3349;49.830;8.748;2023-05-07T03:53:35;13.00;99.90
6627;DHT22;3349;49.830;8.748;2023-05-07T03:56:02;13.00;99.90
6627;DHT22;3349;49.830;8.748;2023-05-07T03:58:30;13.10;99.90
6627;DHT22;3349;49.830;8.748;2023-05-07T04:00:57;13.10;99.90
6627;DHT22;3349;49.830;8.748;2023-05-07T04:03:24;13.20;99.90
6627;DHT22;3349;49.830;8.748;2023-05-07T04:05:50;13.20;99.90
6627;DHT22;3349;49.830;8.748;2023-05-07T04:08:17;13.30;99.90
6627;DHT22;3349;49.830;8.748;2023-05-07T04:10:44;13.30;99.90
6627;DHT22;3349;49.830;8.748;2023-05-07T04:13:11;13.40;99.90
6627;DHT22;3349;49.830;8.748;2023-05-07T04:15:39;13.40;99.90
6627;DHT22;3349;49.830;8.748;2023-05-07T04:18:05;13.50;99.90
6627;DHT22;3349;49.830;8.748;2023-05-07T04:20:34;13.50;99.90
6627;DHT22;3349;49.830;8.748;2023-05-07T04:23:02;13.60;99.90
6627;DHT22;3349;49.830;8.748;2023-05-07T04:25:28;13.60;99.90
6627;DHT22;3349;49.830;8.748;2023-05-07T04:27:56;13.60;99.90
6627;DHT22;3349;49.830;8.748;2023-05-07T04:30:22;13.70;99.90
6627;DHT22;3349;49.830;8.748;2023-05-07T04:32:51;13.60;99.90
6627;DHT22;3349;49.830;8.748;2023-05-07T04:35:18;13.70;99.90
6627;DHT22;3349;49.830;8.748;2023-05-07T04:37:45;13.70;99.90
6627;DHT22;3349;49.830;8.748;2023-05-07T04:40:11;13.70;99.90
6627;DHT22;3349;49.830;8.748;2023-05-07T04:42:38;13.80;99.90
6627;DHT22;3349;49.830;8.748;2023-05-07T04:45:05;13.80;99.90
6627;DHT22;3349;49.830;8.748;2023-05-07T04:47:34;13.80;99.90
6627;DHT22;3349;49.830;8.748;2023-05-07T04:50:02;13.90;99.90
6627;DHT22;3349;49.830;8.748;2023-05-07T04:52:29;13.90;99.90
6627;DHT22;3349;49.830;8.748;2023-05-07T04:54:58;13.90;99.90
6627;DHT22;3349;49.830;8.748;2023-05-07T04:57:25;14.00;99.90
6627;DHT22;3349;49.830;8.748;2023-05-07T04:59:52;14.00;99.90
6627;DHT22;3349;49.830;8.748;2023-05-07T05:02:19;14.10;99.90
6627;DHT22;3349;49.830;8.748;2023-05-07T05:04:46;14.10;99.90
6627;DHT22;3349;49.830;8.748;2023-05-07T05:07:14;14.10;99.90
6627;DHT22;3349;49.830;8.748;2023-05-07T05:09:40;14.20;99.90
6627;DHT22;3349;49.830;8.748;2023-05-07T05:12:07;14.20;99.90
6627;DHT22;3349;49.830;8.748;2023-05-07T05:14:34;14.20;99.70
6627;DHT22;3349;49.830;8.748;2023-05-07T05:17:00;14.30;99.40
6627;DHT22;3349;49.830;8.748;2023-05-07T05:19:27;14.30;99.20
6627;DHT22;3349;49.830;8.748;2023-05-07T05:21:54;14.40;98.90
6627;DHT22;3349;49.830;8.748;2023-05-07T05:24:22;14.50;98.60
6627;DHT22;3349;49.830;8.748;2023-05-07T05:26:48;14.60;98.20
6627;DHT22;3349;49.830;8.748;2023-05-07T05:29:15;14.60;97.00
6627;DHT22;3349;49.830;8.748;2023-05-07T05:31:42;14.70;96.60
6627;DHT22;3349;49.830;8.748;2023-05-07T05:34:09;14.80;96.50
6627;DHT22;3349;49.830;8.748;2023-05-07T05:36:36;14.90;95.90
6627;DHT22;3349;49.830;8.748;2023-05-07T05:39:03;15.00;95.50
6627;DHT22;3349;49.830;8.748;2023-05-07T05:41:31;15.00;94.80
6627;DHT22;3349;49.830;8.748;2023-05-07T05:43:57;15.10;94.40
6627;DHT22;3349;49.830;8.748;2023-05-07T05:46:24;15.20;94.20
6627;DHT22;3349;49.830;8.748;2023-05-07T05:48:51;15.20;93.70
6627;DHT22;3349;49.830;8.748;2023-05-07T05:51:17;15.20;93.60
6627;DHT22;3349;49.830;8.748;2023-05-07T05:53:44;15.20;93.50
6627;DHT22;3349;49.830;8.748;2023-05-07T05:56:11;15.30;93.40
6627;DHT22;3349;49.830;8.748;2023-05-07T05:58:39;15.40;93.10
6627;DHT22;3349;49.830;8.748;2023-05-07T06:01:06;15.40;93.00
6627;DHT22;3349;49.830;8.748;2023-05-07T06:03:33;15.40;92.80
6627;DHT22;3349;49.830;8.748;2023-05-07T06:05:59;15.50;92.60
6627;DHT22;3349;49.830;8.748;2023-05-07T06:08:29;15.60;92.20
6627;DHT22;3349;49.830;8.748;2023-05-07T06:10:56;15.70;91.30
6627;DHT22;3349;49.830;8.748;2023-05-07T06:13:23;15.80;91.30
6627;DHT22;3349;49.830;8.748;2023-05-07T06:15:51;15.90;90.40
6627;DHT22;3349;49.830;8.748;2023-05-07T06:18:17;15.90;90.00
6627;DHT22;3349;49.830;8.748;2023-05-07T06:20:44;15.90;90.00
6627;DHT22;3349;49.830;8.748;2023-05-07T06:23:11;16.00;89.50
6627;DHT22;3349;49.830;8.748;2023-05-07T06:25:38;15.90;88.80
6627;DHT22;3349;49.830;8.748;2023-05-07T06:28:05;15.90;88.10
6627;DHT22;3349;49.830;8.748;2023-05-07T06:30:33;15.90;87.90
6627;DHT22;3349;49.830;8.748;2023-05-07T06:33:02;16.00;87.90
6627;DHT22;3349;49.830;8.748;2023-05-07T06:35:29;16.00;87.30
6627;DHT22;3349;49.830;8.748;2023-05-07T06:37:55;16.00;87.30
6627;DHT22;3349;49.830;8.748;2023-05-07T06:40:22;16.10;84.70
6627;DHT22;3349;49.830;8.748;2023-05-07T06:42:49;16.10;85.80
6627;DHT22;3349;49.830;8.748;2023-05-07T06:45:15;16.20;84.40
6627;DHT22;3349;49.830;8.748;2023-05-07T06:47:42;16.30;83.20
6627;DHT22;3349;49.830;8.748;2023-05-07T06:50:10;16.40;82.50
6627;DHT22;3349;49.830;8.748;2023-05-07T06:52:37;16.50;80.70
6627;DHT22;3349;49.830;8.748;2023-05-07T06:55:05;16.50;78.50
6627;DHT22;3349;49.830;8.748;2023-05-07T06:57:32;16.70;76.90
6627;DHT22;3349;49.830;8.748;2023-05-07T06:59:59;16.60;76.50
6627;DHT22;3349;49.830;8.748;2023-05-07T07:02:26;16.60;76.70
6627;DHT22;3349;49.830;8.748;2023-05-07T07:04:53;16.60;76.40
6627;DHT22;3349;49.830;8.748;2023-05-07T07:07:21;16.70;77.10
6627;DHT22;3349;49.830;8.748;2023-05-07T07:09:48;16.70;74.80
6627;DHT22;3349;49.830;8.748;2023-05-07T07:12:15;16.80;74.80
6627;DHT22;3349;49.830;8.748;2023-05-07T07:14:42;16.80;74.40
6627;DHT22;3349;49.830;8.748;2023-05-07T07:17:09;16.80;73.70
6627;DHT22;3349;49.830;8.748;2023-05-07T07:19:36;16.90;74.00
6627;DHT22;3349;49.830;8.748;2023-05-07T07:22:04;16.90;74.10
6627;DHT22;3349;49.830;8.748;2023-05-07T07:24:32;17.10;74.60
6627;DHT22;3349;49.830;8.748;2023-05-07T07:26:59;17.20;74.10
6627;DHT22;3349;49.830;8.748;2023-05-07T07:29:26;17.30;72.30
6627;DHT22;3349;49.830;8.748;2023-05-07T07:31:53;17.20;72.00
6627;DHT22;3349;49.830;8.748;2023-05-07T07:34:19;17.40;70.20
6627;DHT22;3349;49.830;8.748;2023-05-07T07:36:46;17.30;69.00
6627;DHT22;3349;49.830;8.748;2023-05-07T07:39:13;17.40;68.30
6627;DHT22;3349;49.830;8.748;2023-05-07T07:41:42;17.30;67.90
6627;DHT22;3349;49.830;8.748;2023-05-07T07:44:08;17.30;69.30
6627;DHT22;3349;49.830;8.748;2023-05-07T07:46:38;17.40;68.90
6627;DHT22;3349;49.830;8.748;2023-05-07T07:49:05;17.50;68.80
6627;DHT22;3349;49.830;8.748;2023-05-07T07:51:31;17.60;67.70
6627;DHT22;3349;49.830;8.748;2023-05-07T07:53:58;17.70;68.70
6627;DHT22;3349;49.830;8.748;2023-05-07T07:56:25;17.80;68.30
6627;DHT22;3349;49.830;8.748;2023-05-07T07:58:53;17.90;67.10
6627;DHT22;3349;49.830;8.748;2023-05-07T08:01:20;17.80;66.30
6627;DHT22;3349;49.830;8.748;2023-05-07T08:03:46;17.80;66.70
6627;DHT22;3349;49.830;8.748;2023-05-07T08:06:13;17.90;67.60
6627;DHT22;3349;49.830;8.748;2023-05-07T08:08:40;18.00;66.60
6627;DHT22;3349;49.830;8.748;2023-05-07T08:11:06;18.10;65.90
6627;DHT22;3349;49.830;8.748;2023-05-07T08:13:33;18.20;66.20
6627;DHT22;3349;49.830;8.748;2023-05-07T08:16:01;18.30;65.80
6627;DHT22;3349;49.830;8.748;2023-05-07T08:18:28;18.50;64.30
6627;DHT22;3349;49.830;8.748;2023-05-07T08:20:54;18.60;64.40
6627;DHT22;3349;49.830;8.748;2023-05-07T08:23:21;18.70;64.50
6627;DHT22;3349;49.830;8.748;2023-05-07T08:25:48;18.90;62.00
6627;DHT22;3349;49.830;8.748;2023-05-07T08:28:15;19.10;60.60
6627;DHT22;3349;49.830;8.748;2023-05-07T08:30:42;19.20;58.90
6627;DHT22;3349;49.830;8.748;2023-05-07T08:33:10;19.10;59.10
6627;DHT22;3349;49.830;8.748;2023-05-07T08:35:37;19.30;59.00
6627;DHT22;3349;49.830;8.748;2023-05-07T08:38:04;19.30;58.20
6627;DHT22;3349;49.830;8.748;2023-05-07T08:40:33;19.30;58.70
6627;DHT22;3349;49.830;8.748;2023-05-07T08:43:03;19.30;58.90
6627;DHT22;3349;49.830;8.748;2023-05-07T08:45:33;19.30;57.90
6627;DHT22;3349;49.830;8.748;2023-05-07T08:48:02;19.30;58.50
6627;DHT22;3349;49.830;8.748;2023-05-07T08:50:31;19.40;58.40
6627;DHT22;3349;49.830;8.748;2023-05-07T08:52:57;19.40;58.00
6627;DHT22;3349;49.830;8.748;2023-05-07T08:55:25;19.30;57.70
6627;DHT22;3349;49.830;8.748;2023-05-07T08:57:52;19.30;58.20
6627;DHT22;3349;49.830;8.748;2023-05-07T09:00:19;19.30;57.60
6627;DHT22;3349;49.830;8.748;2023-05-07T09:02:46;19.40;57.80
6627;DHT22;3349;49.830;8.748;2023-05-07T09:05:13;19.60;57.80
6627;DHT22;3349;49.830;8.748;2023-05-07T09:07:41;19.70;58.20
6627;DHT22;3349;49.830;8.748;2023-05-07T09:10:08;19.90;56.80
6627;DHT22;3349;49.830;8.748;2023-05-07T09:12:35;20.20;55.90
6627;DHT22;3349;49.830;8.748;2023-05-07T09:15:02;20.30;55.40
6627;DHT22;3349;49.830;8.748;2023-05-07T09:17:28;20.70;54.50
6627;DHT22;3349;49.830;8.748;2023-05-07T09:19:55;21.00;54.10
6627;DHT22;3349;49.830;8.748;2023-05-07T09:22:22;21.10;53.00
6627;DHT22;3349;49.830;8.748;2023-05-07T09:24:51;21.30;52.90
6627;DHT22;3349;49.830;8.748;2023-05-07T09:27:18;21.20;52.80
6627;DHT22;3349;49.830;8.748;2023-05-07T09:29:44;21.30;52.60
6627;DHT22;3349;49.830;8.748;2023-05-07T09:32:11;21.60;52.60
6627;DHT22;3349;49.830;8.748;2023-05-07T09:34:38;21.80;51.50
6627;DHT22;3349;49.830;8.748;2023-05-07T09:37:06;21.80;51.00
6627;DHT22;3349;49.830;8.748;2023-05-07T09:39:39;22.10;50.90
6627;DHT22;3349;49.830;8.748;2023-05-07T09:42:08;22.10;50.40
6627;DHT22;3349;49.830;8.748;2023-05-07T09:44:35;22.30;50.50
6627;DHT22;3349;49.830;8.748;2023-05-07T09:47:05;22.70;49.20
6627;DHT22;3349;49.830;8.748;2023-05-07T09:49:34;22.80;49.40
6627;DHT22;3349;49.830;8.748;2023-05-07T09:52:03;22.80;47.80
6627;DHT22;3349;49.830;8.748;2023-05-07T09:54:31;22.80;48.50
6627;DHT22;3349;49.830;8.748;2023-05-07T09:56:59;22.60;49.30
6627;DHT22;3349;49.830;8.748;2023-05-07T09:59:30;22.70;48.70
6627;DHT22;3349;49.830;8.748;2023-05-07T10:01:58;22.50;48.70
6627;DHT22;3349;49.830;8.748;2023-05-07T10:04:26;22.70;49.20
6627;DHT22;3349;49.830;8.748;2023-05-07T10:06:53;23.10;48.70
6627;DHT22;3349;49.830;8.748;2023-05-07T10:09:21;23.10;48.40
6627;DHT22;3349;49.830;8.748;2023-05-07T10:11:49;23.10;49.10
6627;DHT22;3349;49.830;8.748;2023-05-07T10:14:16;23.10;47.70
6627;DHT22;3349;49.830;8.748;2023-05-07T10:16:44;23.10;48.20
6627;DHT22;3349;49.830;8.748;2023-05-07T10:19:11;23.10;48.30
6627;DHT22;3349;49.830;8.748;2023-05-07T10:21:39;23.30;48.60
6627;DHT22;3349;49.830;8.748;2023-05-07T10:24:19;23.30;47.90
6627;DHT22;3349;49.830;8.748;2023-05-07T10:26:49;23.20;47.00
6627;DHT22;3349;49.830;8.748;2023-05-07T10:29:25;23.20;47.90
6627;DHT22;3349;49.830;8.748;2023-05-07T10:32:01;23.40;47.80
6627;DHT22;3349;49.830;8.748;2023-05-07T10:34:36;23.60;46.50
6627;DHT22;3349;49.830;8.748;2023-05-07T10:37:04;24.10;45.60
6627;DHT22;3349;49.830;8.748;2023-05-07T10:39:31;24.00;46.00
6627;DHT22;3349;49.830;8.748;2023-05-07T10:42:07;23.70;45.70
6627;DHT22;3349;49.830;8.748;2023-05-07T10:44:34;23.30;46.60
6627;DHT22;3349;49.830;8.748;2023-05-07T10:47:11;23.30;47.30
6627;DHT22;3349;49.830;8.748;2023-05-07T10:50:22;23.10;47.30
6627;DHT22;3349;49.830;8.748;2023-05-07T10:53:23;23.40;47.90
6627;DHT22;3349;49.830;8.748;2023-05-07T10:56:24;24.20;46.30
6627;DHT22;3349;49.830;8.748;2023-05-07T10:58:53;25.20;45.50
6627;DHT22;3349;49.830;8.748;2023-05-07T11:01:50;26.50;42.70
6627;DHT22;3349;49.830;8.748;2023-05-07T11:04:17;27.30;40.00
6627;DHT22;3349;49.830;8.748;2023-05-07T11:10:04;28.20;37.60
6627;DHT22;3349;49.830;8.748;2023-05-07T11:12:48;28.60;36.90
6627;DHT22;3349;49.830;8.748;2023-05-07T11:15:15;29.00;36.80
6627;DHT22;3349;49.830;8.748;2023-05-07T11:18:00;29.00;35.50
6627;DHT22;3349;49.830;8.748;2023-05-07T11:20:45;29.60;34.20
6627;DHT22;3349;49.830;8.748;2023-05-07T11:26:46;29.70;34.30
6627;DHT22;3349;49.830;8.748;2023-05-07T11:29:15;30.40;32.10
6627;DHT22;3349;49.830;8.748;2023-05-07T11:31:42;30.80;31.80
6627;DHT22;3349;49.830;8.748;2023-05-07T11:34:09;31.50;30.80
6627;DHT22;3349;49.830;8.748;2023-05-07T11:36:41;31.80;29.90
6627;DHT22;3349;49.830;8.748;2023-05-07T11:39:24;32.40;29.70
6627;DHT22;3349;49.830;8.748;2023-05-07T11:41:52;33.30;28.00
6627;DHT22;3349;49.830;8.748;2023-05-07T11:44:19;33.70;27.50
6627;DHT22;3349;49.830;8.748;2023-05-07T11:46:46;33.50;28.50
6627;DHT22;3349;49.830;8.748;2023-05-07T11:49:12;33.70;27.20
6627;DHT22;3349;49.830;8.748;2023-05-07T11:51:39;33.70;27.00
6627;DHT22;3349;49.830;8.748;2023-05-07T11:54:08;33.70;27.10
6627;DHT22;3349;49.830;8.748;2023-05-07T11:56:37;33.00;26.50
6627;DHT22;3349;49.830;8.748;2023-05-07T11:59:05;32.50;27.60
6627;DHT22;3349;49.830;8.748;2023-05-07T12:01:35;32.30;27.20
6627;DHT22;3349;49.830;8.748;2023-05-07T12:04:03;32.20;27.90
6627;DHT22;3349;49.830;8.748;2023-05-07T12:06:30;32.50;27.60
6627;DHT22;3349;49.830;8.748;2023-05-07T12:08:57;32.50;27.60
6627;DHT22;3349;49.830;8.748;2023-05-07T12:11:25;32.50;27.60
6627;DHT22;3349;49.830;8.748;2023-05-07T12:13:53;32.80;27.50
6627;DHT22;3349;49.830;8.748;2023-05-07T12:16:22;33.00;26.50
6627;DHT22;3349;49.830;8.748;2023-05-07T12:18:50;33.10;26.70
6627;DHT22;3349;49.830;8.748;2023-05-07T12:21:18;33.10;26.20
6627;DHT22;3349;49.830;8.748;2023-05-07T12:23:45;32.90;27.10
6627;DHT22;3349;49.830;8.748;2023-05-07T12:26:12;33.00;26.80
6627;DHT22;3349;49.830;8.748;2023-05-07T12:28:39;32.50;26.80
6627;DHT22;3349;49.830;8.748;2023-05-07T12:31:06;31.80;27.30
6627;DHT22;3349;49.830;8.748;2023-05-07T12:33:35;31.90;27.50
6627;DHT22;3349;49.830;8.748;2023-05-07T12:36:06;31.20;27.80
6627;DHT22;3349;49.830;8.748;2023-05-07T12:38:37;30.60;28.10
6627;DHT22;3349;49.830;8.748;2023-05-07T12:41:06;29.80;29.30
6627;DHT22;3349;49.830;8.748;2023-05-07T12:43:33;29.20;29.60
6627;DHT22;3349;49.830;8.748;2023-05-07T12:46:01;28.50;31.10
6627;DHT22;3349;49.830;8.748;2023-05-07T12:48:29;28.10;31.50
6627;DHT22;3349;49.830;8.748;2023-05-07T12:50:59;27.80;31.90
6627;DHT22;3349;49.830;8.748;2023-05-07T12:53:27;27.50;32.80
6627;DHT22;3349;49.830;8.748;2023-05-07T12:55:57;27.30;32.60
6627;DHT22;3349;49.830;8.748;2023-05-07T12:58:26;27.20;33.30
6627;DHT22;3349;49.830;8.748;2023-05-07T13:00:53;27.10;32.40
6627;DHT22;3349;49.830;8.748;2023-05-07T13:03:25;27.10;32.20
6627;DHT22;3349;49.830;8.748;2023-05-07T13:05:52;27.10;32.50
6627;DHT22;3349;49.830;8.748;2023-05-07T13:08:29;27.00;32.40
6627;DHT22;3349;49.830;8.748;2023-05-07T13:10:57;26.60;32.60
6627;DHT22;3349;49.830;8.748;2023-05-07T13:13:25;26.70;32.20
6627;DHT22;3349;49.830;8.748;2023-05-07T13:15:51;26.70;32.60
6627;DHT22;3349;49.830;8.748;2023-05-07T13:18:18;26.80;32.30
6627;DHT22;3349;49.830;8.748;2023-05-07T13:20:45;26.70;32.20
6627;DHT22;3349;49.830;8.748;2023-05-07T13:23:11;26.90;33.50
6627;DHT22;3349;49.830;8.748;2023-05-07T13:25:39;26.80;32.50
6627;DHT22;3349;49.830;8.748;2023-05-07T13:28:06;26.60;33.30
6627;DHT22;3349;49.830;8.748;2023-05-07T13:30:33;26.30;33.40
6627;DHT22;3349;49.830;8.748;2023-05-07T13:33:00;26.30;33.50
6627;DHT22;3349;49.830;8.748;2023-05-07T13:35:27;26.20;33.30
6627;DHT22;3349;49.830;8.748;2023-05-07T13:37:54;26.20;33.30
6627;DHT22;3349;49.830;8.748;2023-05-07T13:40:21;26.00;33.80
6627;DHT22;3349;49.830;8.748;2023-05-07T13:42:49;25.90;34.20
6627;DHT22;3349;49.830;8.748;2023-05-07T13:45:16;25.70;33.50
6627;DHT22;3349;49.830;8.748;2023-05-07T13:47:43;25.70;34.90
6627;DHT22;3349;49.830;8.748;2023-05-07T13:50:10;25.80;35.20
6627;DHT22;3349;49.830;8.748;2023-05-07T13:52:39;26.00;35.70
6627;DHT22;3349;49.830;8.748;2023-05-07T13:55:06;26.00;35.70
6627;DHT22;3349;49.830;8.748;2023-05-07T13:57:33;26.00;34.40
6627;DHT22;3349;49.830;8.748;2023-05-07T14:00:01;25.80;33.70
6627;DHT22;3349;49.830;8.748;2023-05-07T14:02:30;25.60;33.80
6627;DHT22;3349;49.830;8.748;2023-05-07T14:04:57;25.50;34.60
6627;DHT22;3349;49.830;8.748;2023-05-07T14:07:23;25.50;35.10
6627;DHT22;3349;49.830;8.748;2023-05-07T14:09:50;25.30;35.10
6627;DHT22;3349;49.830;8.748;2023-05-07T14:12:17;25.20;35.70
6627;DHT22;3349;49.830;8.748;2023-05-07T14:14:43;25.20;35.70
6627;DHT22;3349;49.830;8.748;2023-05-07T14:17:12;25.10;35.60
6627;DHT22;3349;49.830;8.748;2023-05-07T14:19:39;25.00;35.60
6627;DHT22;3349;49.830;8.748;2023-05-07T14:22:05;25.00;35.10
6627;DHT22;3349;49.830;8.748;2023-05-07T14:24:32;24.90;35.50
6627;DHT22;3349;49.830;8.748;2023-05-07T14:26:59;24.90;36.20
6627;DHT22;3349;49.830;8.748;2023-05-07T14:29:28;24.80;36.50
6627;DHT22;3349;49.830;8.748;2023-05-07T14:31:54;24.70;35.70
6627;DHT22;3349;49.830;8.748;2023-05-07T14:34:22;24.60;36.50
6627;DHT22;3349;49.830;8.748;2023-05-07T14:36:49;24.30;35.70
6627;DHT22;3349;49.830;8.748;2023-05-07T14:39:17;24.30;36.60
6627;DHT22;3349;49.830;8.748;2023-05-07T14:41:43;24.20;37.00
6627;DHT22;3349;49.830;8.748;2023-05-07T14:44:10;24.10;37.40
6627;DHT22;3349;49.830;8.748;2023-05-07T14:46:37;24.00;38.10
6627;DHT22;3349;49.830;8.748;2023-05-07T14:49:04;23.90;38.60
6627;DHT22;3349;49.830;8.748;2023-05-07T14:51:32;23.70;38.30
6627;DHT22;3349;49.830;8.748;2023-05-07T14:53:59;23.70;38.90
6627;DHT22;3349;49.830;8.748;2023-05-07T14:56:27;23.60;39.20
6627;DHT22;3349;49.830;8.748;2023-05-07T14:58:54;23.60;39.60
6627;DHT22;3349;49.830;8.748;2023-05-07T15:01:21;23.50;39.30
6627;DHT22;3349;49.830;8.748;2023-05-07T15:03:48;23.40;39.70
6627;DHT22;3349;49.830;8.748;2023-05-07T15:06:14;23.40;40.00
6627;DHT22;3349;49.830;8.748;2023-05-07T15:08:42;23.30;39.50
6627;DHT22;3349;49.830;8.748;2023-05-07T15:11:09;23.20;39.90
6627;DHT22;3349;49.830;8.748;2023-05-07T15:13:36;23.10;40.20
6627;DHT22;3349;49.830;8.748;2023-05-07T15:16:02;22.90;40.50
6627;DHT22;3349;49.830;8.748;2023-05-07T15:18:29;22.80;41.10
6627;DHT22;3349;49.830;8.748;2023-05-07T15:20:56;22.70;41.50
6627;DHT22;3349;49.830;8.748;2023-05-07T15:23:23;22.60;42.30
6627;DHT22;3349;49.830;8.748;2023-05-07T15:25:51;22.50;42.20
6627;DHT22;3349;49.830;8.748;2023-05-07T15:28:18;22.40;42.20
6627;DHT22;3349;49.830;8.748;2023-05-07T15:30:45;22.40;42.10
6627;DHT22;3349;49.830;8.748;2023-05-07T15:33:11;22.30;42.10
6627;DHT22;3349;49.830;8.748;2023-05-07T15:35:38;22.20;42.40
6627;DHT22;3349;49.830;8.748;2023-05-07T15:38:05;22.10;43.30
6627;DHT22;3349;49.830;8.748;2023-05-07T15:40:34;22.00;43.60
6627;DHT22;3349;49.830;8.748;2023-05-07T15:43:04;22.00;44.40
6627;DHT22;3349;49.830;8.748;2023-05-07T15:45:31;21.90;45.80
6627;DHT22;3349;49.830;8.748;2023-05-07T15:47:58;21.80;46.40
6627;DHT22;3349;49.830;8.748;2023-05-07T15:50:25;21.70;48.00
6627;DHT22;3349;49.830;8.748;2023-05-07T15:52:53;21.60;49.90
6627;DHT22;3349;49.830;8.748;2023-05-07T15:55:20;21.30;51.90
6627;DHT22;3349;49.830;8.748;2023-05-07T15:57:47;20.90;58.90
6627;DHT22;3349;49.830;8.748;2023-05-07T16:00:16;20.30;66.10
6627;DHT22;3349;49.830;8.748;2023-05-07T16:02:43;19.60;79.40
6627;DHT22;3349;49.830;8.748;2023-05-07T16:05:10;18.90;90.40
6627;DHT22;3349;49.830;8.748;2023-05-07T16:07:38;18.50;94.00
6627;DHT22;3349;49.830;8.748;2023-05-07T16:10:06;18.10;96.30
6627;DHT22;3349;49.830;8.748;2023-05-07T16:12:33;17.90;99.90